createdAt,value
2022-12-27T00:00:28.876Z,7.10
2022-12-27T00:02:55.938Z,7.10
2022-12-27T00:05:23.002Z,7.10
2022-12-27T00:07:50.071Z,7.10
2022-12-27T00:10:17.052Z,7.10
2022-12-27T00:12:44.031Z,7.10
2022-12-27T00:15:11.063Z,7.10
2022-12-27T00:17:38.059Z,7.10
2022-12-27T00:20:11.409Z,7.10
2022-12-27T00:22:39.400Z,7.10
2022-12-27T00:25:06.554Z,7.10
2022-12-27T00:27:33.536Z,7.00
2022-12-27T00:30:01.580Z,7.00
2022-12-27T00:32:28.556Z,7.00
2022-12-27T00:34:55.570Z,7.00
2022-12-27T00:37:22.530Z,7.00
2022-12-27T00:39:49.506Z,6.90
2022-12-27T00:42:16.535Z,7.00
2022-12-27T00:44:43.706Z,6.90
2022-12-27T00:47:10.729Z,6.90
2022-12-27T00:49:37.720Z,6.90
2022-12-27T00:52:04.889Z,6.80
2022-12-27T00:54:31.919Z,6.70
2022-12-27T00:56:58.925Z,6.70
2022-12-27T00:59:25.895Z,6.60
2022-12-27T01:01:53.309Z,6.60
2022-12-27T01:04:20.395Z,6.50
2022-12-27T01:06:47.389Z,6.50
2022-12-27T01:09:14.375Z,6.40
2022-12-27T01:11:41.614Z,6.40
2022-12-27T01:14:09.405Z,6.40
2022-12-27T01:16:36.602Z,6.40
2022-12-27T01:19:03.631Z,6.30
2022-12-27T01:21:30.831Z,6.30
2022-12-27T01:23:58.138Z,6.30
2022-12-27T01:26:25.257Z,6.20
2022-12-27T01:28:52.393Z,6.20
2022-12-27T01:31:21.203Z,6.20
2022-12-27T01:33:48.432Z,6.20
2022-12-27T01:36:16.474Z,6.10
2022-12-27T01:38:43.633Z,6.10
2022-12-27T01:41:32.707Z,6.10
2022-12-27T01:43:59.823Z,6.10
2022-12-27T01:46:26.778Z,6.10
2022-12-27T01:48:53.766Z,6.00
2022-12-27T01:51:20.730Z,6.00
2022-12-27T01:53:48.124Z,6.00
2022-12-27T01:56:16.503Z,5.90
2022-12-27T01:58:54.035Z,6.00
2022-12-27T02:01:25.457Z,5.90
2022-12-27T02:03:53.923Z,5.90
2022-12-27T02:06:21.068Z,5.90
2022-12-27T02:08:56.814Z,5.90
2022-12-27T02:11:46.830Z,5.90
2022-12-27T02:14:13.873Z,5.80
2022-12-27T02:16:40.886Z,5.80
2022-12-27T02:19:14.510Z,5.80
2022-12-27T02:21:50.631Z,5.80
2022-12-27T02:24:36.339Z,5.80
2022-12-27T02:27:04.916Z,5.80
2022-12-27T02:29:31.865Z,5.80
2022-12-27T02:31:58.796Z,5.80
2022-12-27T02:34:31.173Z,5.80
2022-12-27T02:36:59.415Z,5.80
2022-12-27T02:39:26.416Z,5.80
2022-12-27T02:42:12.640Z,5.80
2022-12-27T02:44:58.249Z,5.80
2022-12-27T02:47:44.030Z,5.80
2022-12-27T02:50:29.816Z,5.80
2022-12-27T02:53:09.431Z,5.80
2022-12-27T02:56:13.680Z,5.70
2022-12-27T02:58:44.814Z,5.70
2022-12-27T03:01:36.679Z,5.70
2022-12-27T03:04:08.619Z,5.70
2022-12-27T03:06:51.726Z,5.60
2022-12-27T03:09:43.578Z,5.60
2022-12-27T03:12:37.421Z,5.60
2022-12-27T03:15:30.387Z,5.50
2022-12-27T03:18:05.725Z,5.50
2022-12-27T03:20:51.436Z,5.40
2022-12-27T03:23:37.306Z,5.40
2022-12-27T03:26:04.268Z,5.40
2022-12-27T03:28:49.958Z,5.30
2022-12-27T03:31:45.709Z,5.30
2022-12-27T03:34:33.100Z,5.20
2022-12-27T03:37:37.602Z,5.20
2022-12-27T03:40:07.844Z,5.10
2022-12-27T03:42:58.071Z,5.10
2022-12-27T03:45:45.015Z,5.00
2022-12-27T03:48:12.201Z,5.00
2022-12-27T03:50:40.312Z,5.00
2022-12-27T03:53:11.674Z,5.00
2022-12-27T03:55:38.651Z,5.00
2022-12-27T03:58:05.683Z,4.90
2022-12-27T04:00:32.645Z,4.90
2022-12-27T04:02:59.769Z,4.90
2022-12-27T04:05:26.939Z,4.90
2022-12-27T04:08:12.735Z,4.80
2022-12-27T04:10:58.523Z,4.80
2022-12-27T04:13:44.172Z,4.80
2022-12-27T04:16:29.998Z,4.80
2022-12-27T04:19:16.089Z,4.70
2022-12-27T04:22:01.973Z,4.70
2022-12-27T04:24:47.720Z,4.60
2022-12-27T04:27:33.471Z,4.60
2022-12-27T04:30:19.288Z,4.50
2022-12-27T04:33:05.094Z,4.50
2022-12-27T04:35:32.069Z,4.40
2022-12-27T04:37:59.103Z,4.30
2022-12-27T04:40:44.835Z,4.30
2022-12-27T04:43:30.646Z,4.20
2022-12-27T04:46:16.322Z,4.20
2022-12-27T04:49:02.025Z,4.10
2022-12-27T04:51:47.629Z,4.10
2022-12-27T04:54:55.792Z,4.00
2022-12-27T04:57:22.761Z,4.00
2022-12-27T05:00:12.986Z,3.90
2022-12-27T05:02:40.264Z,3.90
2022-12-27T05:05:07.555Z,3.80
2022-12-27T05:07:53.304Z,3.80
2022-12-27T05:10:40.982Z,3.80
2022-12-27T05:13:28.328Z,3.80
2022-12-27T05:15:55.381Z,3.70
2022-12-27T05:18:22.362Z,3.70
2022-12-27T05:20:49.560Z,3.70
2022-12-27T05:23:35.196Z,3.70
2022-12-27T05:26:02.216Z,3.70
2022-12-27T05:28:29.460Z,3.70
2022-12-27T05:31:00.064Z,3.70
2022-12-27T05:33:27.128Z,3.60
2022-12-27T05:35:54.092Z,3.60
2022-12-27T05:38:21.094Z,3.60
2022-12-27T05:40:48.059Z,3.60
2022-12-27T05:43:15.043Z,3.60
2022-12-27T05:45:42.067Z,3.50
2022-12-27T05:48:09.049Z,3.50
2022-12-27T05:50:36.052Z,3.50
2022-12-27T05:53:12.545Z,3.40
2022-12-27T05:55:39.619Z,3.40
2022-12-27T05:58:06.804Z,3.40
2022-12-27T06:00:33.820Z,3.30
2022-12-27T06:03:01.943Z,3.30
2022-12-27T06:05:29.053Z,3.20
2022-12-27T06:07:56.205Z,3.20
2022-12-27T06:10:23.178Z,3.20
2022-12-27T06:12:50.134Z,3.20
2022-12-27T06:15:17.081Z,3.10
2022-12-27T06:17:44.155Z,3.10
2022-12-27T06:20:11.203Z,3.00
2022-12-27T06:22:38.180Z,3.10
2022-12-27T06:25:07.103Z,3.00
2022-12-27T06:27:36.751Z,3.00
2022-12-27T06:30:04.695Z,3.00
2022-12-27T06:32:31.889Z,2.90
2022-12-27T06:34:59.490Z,2.90
2022-12-27T06:37:26.472Z,2.80
2022-12-27T06:39:53.491Z,2.80
2022-12-27T06:42:20.456Z,2.80
2022-12-27T06:44:47.440Z,2.70
2022-12-27T06:47:14.480Z,2.70
2022-12-27T06:49:41.445Z,2.70
2022-12-27T06:52:08.432Z,2.60
2022-12-27T06:54:35.433Z,2.60
2022-12-27T06:57:02.385Z,2.60
2022-12-27T06:59:29.421Z,2.60
2022-12-27T07:01:56.608Z,2.60
2022-12-27T07:04:23.712Z,2.60
2022-12-27T07:06:50.680Z,2.60
2022-12-27T07:09:17.938Z,2.60
2022-12-27T07:11:45.989Z,2.60
2022-12-27T07:14:13.003Z,2.50
2022-12-27T07:16:40.000Z,2.50
2022-12-27T07:19:06.991Z,2.50
2022-12-27T07:21:34.455Z,2.50
2022-12-27T07:24:01.486Z,2.50
2022-12-27T07:26:29.870Z,2.50
2022-12-27T07:28:57.800Z,2.50
2022-12-27T07:31:26.286Z,2.40
2022-12-27T07:33:53.460Z,2.50
2022-12-27T07:36:31.337Z,2.50
2022-12-27T07:38:58.402Z,2.50
2022-12-27T07:41:25.410Z,2.50
2022-12-27T07:43:53.375Z,2.40
2022-12-27T07:46:21.116Z,2.40
2022-12-27T07:48:48.131Z,2.40
2022-12-27T07:51:15.294Z,2.40
2022-12-27T07:53:42.364Z,2.40
2022-12-27T07:56:10.150Z,2.50
2022-12-27T07:58:41.998Z,2.50
2022-12-27T08:01:09.091Z,2.60
2022-12-27T08:03:36.208Z,2.60
2022-12-27T08:06:03.294Z,2.60
2022-12-27T08:08:37.230Z,2.70
2022-12-27T08:11:05.821Z,2.70
2022-12-27T08:13:33.178Z,2.70
2022-12-27T08:16:00.188Z,2.80
2022-12-27T08:18:27.213Z,2.80
2022-12-27T08:20:54.266Z,2.80
2022-12-27T08:23:21.333Z,2.80
2022-12-27T08:25:48.946Z,2.90
2022-12-27T08:28:16.578Z,2.90
2022-12-27T08:30:43.941Z,2.90
2022-12-27T08:33:11.353Z,2.90
2022-12-27T08:35:52.769Z,2.90
2022-12-27T08:38:20.510Z,3.00
2022-12-27T08:40:47.508Z,3.00
2022-12-27T08:43:14.568Z,3.00
2022-12-27T08:45:41.660Z,3.00
2022-12-27T08:48:08.755Z,3.00
2022-12-27T08:50:35.883Z,3.10
2022-12-27T08:53:03.469Z,3.10
2022-12-27T08:55:30.565Z,3.10
2022-12-27T08:57:58.002Z,3.20
2022-12-27T09:00:25.409Z,3.20
2022-12-27T09:02:52.569Z,3.30
2022-12-27T09:05:20.024Z,3.40
2022-12-27T09:07:47.039Z,3.40
2022-12-27T09:10:14.097Z,3.50
2022-12-27T09:12:41.084Z,3.50
2022-12-27T09:15:08.305Z,3.60
2022-12-27T09:17:35.389Z,3.70
2022-12-27T09:20:02.353Z,3.70
2022-12-27T09:22:29.350Z,3.80
2022-12-27T09:24:56.350Z,3.90
2022-12-27T09:27:23.317Z,3.90
2022-12-27T09:29:50.945Z,4.00
2022-12-27T09:32:17.980Z,4.00
2022-12-27T09:34:45.019Z,4.00
2022-12-27T09:37:12.003Z,4.00
2022-12-27T09:39:39.001Z,4.10
2022-12-27T09:44:59.109Z,4.10
2022-12-27T09:47:32.896Z,4.10
2022-12-27T09:50:04.075Z,4.10
2022-12-27T09:52:37.898Z,4.20
2022-12-27T09:55:11.241Z,4.20
2022-12-27T09:57:41.999Z,4.20
2022-12-27T10:00:14.559Z,4.20
2022-12-27T10:02:44.329Z,4.20
2022-12-27T10:05:21.726Z,4.20
2022-12-27T10:07:51.376Z,4.20
2022-12-27T10:10:18.440Z,4.20
2022-12-27T10:12:57.729Z,4.20
2022-12-27T10:15:29.226Z,4.20
2022-12-27T10:17:56.187Z,4.30
2022-12-27T10:20:43.200Z,4.30
2022-12-27T10:23:10.884Z,4.30
2022-12-27T10:25:37.846Z,4.30
2022-12-27T10:28:17.495Z,4.30
2022-12-27T10:30:44.627Z,4.40
2022-12-27T10:33:22.229Z,4.30
2022-12-27T10:35:49.202Z,4.40
2022-12-27T10:38:16.226Z,4.40
2022-12-27T10:40:49.068Z,4.40
2022-12-27T10:43:19.691Z,4.50
2022-12-27T10:45:46.682Z,4.50
2022-12-27T10:48:16.999Z,4.60
2022-12-27T10:50:45.236Z,4.60
2022-12-27T10:53:30.752Z,4.60
2022-12-27T10:56:10.026Z,4.60
2022-12-27T10:58:38.071Z,4.60
2022-12-27T11:01:05.173Z,4.70
2022-12-27T11:03:32.211Z,4.70
2022-12-27T11:06:03.559Z,4.70
2022-12-27T11:08:30.518Z,4.70
2022-12-27T11:11:16.324Z,4.80
2022-12-27T11:13:43.331Z,4.80
2022-12-27T11:16:14.176Z,4.80
2022-12-27T11:18:45.298Z,4.80
2022-12-27T11:21:20.170Z,4.80
2022-12-27T11:23:54.498Z,4.90
2022-12-27T11:26:25.453Z,4.90
2022-12-27T11:29:01.619Z,4.90
2022-12-27T11:31:34.694Z,4.90
2022-12-27T11:34:03.559Z,4.90
2022-12-27T11:36:41.873Z,4.90
2022-12-27T11:39:12.606Z,4.90
2022-12-27T11:41:41.437Z,4.90
2022-12-27T11:44:08.402Z,4.90
2022-12-27T11:46:59.094Z,5.00
2022-12-27T11:49:28.318Z,5.00
2022-12-27T11:52:04.428Z,5.00
2022-12-27T11:54:50.310Z,5.00
2022-12-27T11:57:28.731Z,5.00
2022-12-27T12:00:01.900Z,5.00
2022-12-27T12:02:31.765Z,5.00
2022-12-27T12:05:34.438Z,5.00
2022-12-27T12:08:04.224Z,5.00
2022-12-27T12:10:40.342Z,5.10
2022-12-27T12:13:09.014Z,5.10
2022-12-27T12:15:48.560Z,5.20
2022-12-27T12:18:15.579Z,5.30
2022-12-27T12:20:59.345Z,5.20
2022-12-27T12:23:32.748Z,5.30
2022-12-27T12:26:18.720Z,5.40
2022-12-27T12:29:00.263Z,5.30
2022-12-27T12:31:27.871Z,5.40
2022-12-27T12:34:14.726Z,5.30
2022-12-27T12:36:52.316Z,5.30
2022-12-27T12:39:38.637Z,5.30
2022-12-27T12:42:24.508Z,5.30
2022-12-27T12:44:56.010Z,5.30
2022-12-27T12:47:29.111Z,5.30
2022-12-27T12:49:58.569Z,5.40
2022-12-27T12:52:31.273Z,5.40
2022-12-27T12:54:58.245Z,5.40
2022-12-27T12:57:40.705Z,5.50
2022-12-27T13:00:17.750Z,5.50
2022-12-27T13:03:03.819Z,5.50
2022-12-27T13:05:47.803Z,5.40
2022-12-27T13:08:17.518Z,5.40
2022-12-27T13:10:45.619Z,5.50
2022-12-27T13:13:16.035Z,5.50
2022-12-27T13:15:55.164Z,5.60
2022-12-27T13:18:33.592Z,5.60
2022-12-27T13:21:05.956Z,5.50
2022-12-27T13:23:36.002Z,5.60
2022-12-27T13:26:12.292Z,5.60
2022-12-27T13:28:42.557Z,5.60
2022-12-27T13:31:16.525Z,5.70
2022-12-27T13:33:58.598Z,5.70
2022-12-27T13:36:28.742Z,5.70
2022-12-27T13:39:03.359Z,5.70
2022-12-27T13:41:52.959Z,5.70
2022-12-27T13:44:29.182Z,5.80
2022-12-27T13:46:56.182Z,5.70
2022-12-27T13:49:41.947Z,5.70
2022-12-27T13:52:16.809Z,5.70
2022-12-27T13:54:49.984Z,5.60
2022-12-27T13:57:23.165Z,5.60
2022-12-27T14:00:02.773Z,5.60
2022-12-27T14:02:52.373Z,5.60
2022-12-27T14:05:44.147Z,5.60
2022-12-27T14:08:29.937Z,5.50
2022-12-27T14:11:01.021Z,5.50
2022-12-27T14:13:28.241Z,5.50
2022-12-27T14:16:15.776Z,5.40
2022-12-27T14:19:01.615Z,5.40
2022-12-27T14:21:41.822Z,5.50
2022-12-27T14:24:17.109Z,5.50
2022-12-27T14:27:00.144Z,5.40
2022-12-27T14:29:54.506Z,5.50
2022-12-27T14:32:24.507Z,5.40
2022-12-27T14:34:59.105Z,5.40
2022-12-27T14:37:39.114Z,5.40
2022-12-27T14:40:09.155Z,5.30
2022-12-27T14:42:44.352Z,5.30
2022-12-27T14:45:34.459Z,5.30
2022-12-27T14:48:19.056Z,5.30
2022-12-27T14:50:58.263Z,5.30
2022-12-27T14:53:37.315Z,5.20
2022-12-27T14:56:12.620Z,5.20
2022-12-27T14:58:46.389Z,5.10
2022-12-27T15:01:19.491Z,5.10
2022-12-27T15:03:50.115Z,5.10
2022-12-27T15:06:32.828Z,5.10
2022-12-27T15:09:06.971Z,5.00
2022-12-27T15:11:50.681Z,5.00
2022-12-27T15:14:26.840Z,5.00
2022-12-27T15:17:06.010Z,5.00
2022-12-27T15:19:52.719Z,4.90
2022-12-27T15:22:25.859Z,4.90
2022-12-27T15:24:56.031Z,4.80
2022-12-27T15:27:23.047Z,4.80
2022-12-27T15:29:50.001Z,4.80
2022-12-27T15:32:35.348Z,4.80
2022-12-27T15:35:21.254Z,4.70
2022-12-27T15:37:48.321Z,4.70
2022-12-27T15:40:22.276Z,4.70
2022-12-27T15:43:27.921Z,4.60
2022-12-27T15:46:06.738Z,4.60
2022-12-27T15:48:53.609Z,4.60
2022-12-27T15:51:39.721Z,4.60
2022-12-27T15:54:15.838Z,4.50
2022-12-27T15:56:54.881Z,4.50
2022-12-27T15:59:34.248Z,4.50
2022-12-27T16:02:24.666Z,4.40
2022-12-27T16:04:53.672Z,4.40
2022-12-27T16:07:36.884Z,4.40
2022-12-27T16:10:22.598Z,4.30
2022-12-27T16:12:49.610Z,4.30
2022-12-27T16:15:35.616Z,4.20
2022-12-27T16:18:03.079Z,4.20
2022-12-27T16:20:30.264Z,4.20
2022-12-27T16:23:04.270Z,4.10
2022-12-27T16:25:35.522Z,4.10
2022-12-27T16:28:09.870Z,4.10
2022-12-27T16:30:41.524Z,4.00
2022-12-27T16:33:27.058Z,4.00
2022-12-27T16:36:17.460Z,4.00
2022-12-27T16:38:48.746Z,4.00
2022-12-27T16:41:21.693Z,3.90
2022-12-27T16:43:51.608Z,3.90
2022-12-27T16:46:25.288Z,3.90
2022-12-27T16:48:57.464Z,3.90
2022-12-27T16:51:29.634Z,3.90
2022-12-27T16:54:04.319Z,3.80
2022-12-27T16:56:37.529Z,3.80
2022-12-27T16:59:15.367Z,3.80
2022-12-27T17:01:42.408Z,3.80
2022-12-27T17:04:09.416Z,3.70
2022-12-27T17:06:36.387Z,3.70
2022-12-27T17:09:09.675Z,3.70
2022-12-27T17:12:00.918Z,3.70
2022-12-27T17:14:29.800Z,3.70
2022-12-27T17:16:57.291Z,3.70
2022-12-27T17:19:30.380Z,3.60
2022-12-27T17:21:58.434Z,3.60
2022-12-27T17:24:25.405Z,3.60
2022-12-27T17:27:01.609Z,3.60
2022-12-27T17:29:32.799Z,3.60
2022-12-27T17:32:12.689Z,3.60
2022-12-27T17:34:58.631Z,3.60
2022-12-27T17:37:31.942Z,3.60
2022-12-27T17:40:17.747Z,3.60
2022-12-27T17:43:03.557Z,3.70
2022-12-27T17:45:52.088Z,3.70
2022-12-27T17:48:29.222Z,3.70
2022-12-27T17:50:57.938Z,3.80
2022-12-27T17:53:43.604Z,3.70
2022-12-27T17:56:29.376Z,3.70
2022-12-27T17:59:01.503Z,3.70
2022-12-27T18:01:29.380Z,3.70
2022-12-27T18:03:56.445Z,3.70
2022-12-27T18:06:23.396Z,3.70
2022-12-27T18:08:50.468Z,3.70
2022-12-27T18:11:23.437Z,3.70
2022-12-27T18:13:53.927Z,3.70
2022-12-27T18:16:22.881Z,3.70
2022-12-27T18:18:51.167Z,3.70
2022-12-27T18:21:25.326Z,3.70
2022-12-27T18:23:53.566Z,3.70
2022-12-27T18:26:22.008Z,3.70
2022-12-27T18:28:49.091Z,3.70
2022-12-27T18:31:24.593Z,3.80
2022-12-27T18:33:52.624Z,3.80
2022-12-27T18:36:21.089Z,3.80
2022-12-27T18:38:50.139Z,3.80
2022-12-27T18:41:18.664Z,3.80
2022-12-27T18:43:46.411Z,3.80
2022-12-27T18:46:17.296Z,3.80
2022-12-27T18:48:44.269Z,3.70
2022-12-27T18:51:11.232Z,3.70
2022-12-27T18:53:38.429Z,3.70
2022-12-27T18:56:14.627Z,3.70
2022-12-27T18:58:58.209Z,3.70
2022-12-27T19:01:31.548Z,3.70
2022-12-27T19:04:22.044Z,3.70
2022-12-27T19:06:54.472Z,3.70
2022-12-27T19:09:22.551Z,3.70
2022-12-27T19:11:51.191Z,3.60
2022-12-27T19:14:18.203Z,3.60
2022-12-27T19:16:55.749Z,3.60
2022-12-27T19:19:24.472Z,3.60
2022-12-27T19:21:51.517Z,3.60
2022-12-27T19:24:30.448Z,3.60
2022-12-27T19:27:00.453Z,3.60
2022-12-27T19:29:28.647Z,3.60
2022-12-27T19:32:00.253Z,3.60
2022-12-27T19:34:28.802Z,3.60
2022-12-27T19:36:55.777Z,3.60
2022-12-27T19:39:29.634Z,3.60
2022-12-27T19:42:01.041Z,3.50
2022-12-27T19:44:28.845Z,3.50
2022-12-27T19:46:56.047Z,3.50
2022-12-27T19:49:41.677Z,3.50
2022-12-27T19:52:11.759Z,3.50
2022-12-27T19:54:38.726Z,3.50
2022-12-27T19:57:05.730Z,3.50
2022-12-27T19:59:32.712Z,3.50
2022-12-27T20:01:59.802Z,3.50
2022-12-27T20:04:26.938Z,3.50
2022-12-27T20:06:54.439Z,3.40
2022-12-27T20:09:21.464Z,3.40
2022-12-27T20:11:48.792Z,3.40
2022-12-27T20:14:17.374Z,3.40
2022-12-27T20:16:44.956Z,3.40
2022-12-27T20:19:13.012Z,3.40
2022-12-27T20:21:40.290Z,3.40
2022-12-27T20:24:09.491Z,3.30
2022-12-27T20:26:36.453Z,3.30
2022-12-27T20:29:04.036Z,3.30
2022-12-27T20:31:31.196Z,3.30
2022-12-27T20:33:58.254Z,3.30
2022-12-27T20:36:25.219Z,3.20
2022-12-27T20:38:52.235Z,3.20
2022-12-27T20:41:19.661Z,3.20
2022-12-27T20:43:46.931Z,3.20
2022-12-27T20:46:14.848Z,3.20
2022-12-27T20:48:42.778Z,3.10
2022-12-27T20:51:10.467Z,3.10
2022-12-27T20:53:37.488Z,3.10
2022-12-27T20:56:04.874Z,3.00
2022-12-27T20:58:32.212Z,3.00
2022-12-27T21:01:09.271Z,2.90
2022-12-27T21:03:36.637Z,2.90
2022-12-27T21:06:07.713Z,2.80
2022-12-27T21:08:38.932Z,2.80
2022-12-27T21:11:13.755Z,2.80
2022-12-27T21:13:41.124Z,2.80
2022-12-27T21:16:11.974Z,2.70
2022-12-27T21:18:39.032Z,2.80
2022-12-27T21:21:07.141Z,2.70
2022-12-27T21:23:34.862Z,2.70
2022-12-27T21:26:02.573Z,2.70
2022-12-27T21:28:29.622Z,2.70
2022-12-27T21:30:56.853Z,2.60
2022-12-27T21:33:23.995Z,2.60
2022-12-27T21:35:55.244Z,2.70
2022-12-27T21:38:22.223Z,2.60
2022-12-27T21:40:56.259Z,2.60
2022-12-27T21:43:23.496Z,2.60
2022-12-27T21:45:50.479Z,2.60
2022-12-27T21:48:17.452Z,2.60
2022-12-27T21:50:45.361Z,2.60
2022-12-27T21:53:13.935Z,2.60
2022-12-27T21:55:40.925Z,2.50
2022-12-27T21:58:07.885Z,2.60
2022-12-27T22:00:35.249Z,2.50
2022-12-27T22:03:02.435Z,2.50
2022-12-27T22:05:29.582Z,2.50
2022-12-27T22:07:56.691Z,2.50
2022-12-27T22:10:24.385Z,2.50
2022-12-27T22:12:51.355Z,2.50
2022-12-27T22:15:18.349Z,2.40
2022-12-27T22:17:45.310Z,2.40
2022-12-27T22:20:12.304Z,2.40
2022-12-27T22:22:39.262Z,2.40
2022-12-27T22:25:06.634Z,2.30
2022-12-27T22:27:33.594Z,2.30
2022-12-27T22:30:00.560Z,2.30
2022-12-27T22:32:27.540Z,2.30
2022-12-27T22:34:54.502Z,2.30
2022-12-27T22:37:21.478Z,2.30
2022-12-27T22:39:48.625Z,2.30
2022-12-27T22:42:16.246Z,2.30
2022-12-27T22:44:43.702Z,2.30
2022-12-27T22:47:27.645Z,2.30
2022-12-27T22:49:55.220Z,2.30
2022-12-27T22:52:22.271Z,2.30
2022-12-27T22:55:05.317Z,2.30
2022-12-27T22:57:33.742Z,2.30
2022-12-27T23:00:00.696Z,2.30
2022-12-27T23:02:27.771Z,2.30
2022-12-27T23:04:54.939Z,2.30
2022-12-27T23:08:05.156Z,2.30
2022-12-27T23:10:09.413Z,2.30
2022-12-27T23:12:36.382Z,2.30
2022-12-27T23:15:03.481Z,2.30
2022-12-27T23:17:30.503Z,2.30
2022-12-27T23:19:57.462Z,2.30
2022-12-27T23:22:24.436Z,2.30
2022-12-27T23:24:51.395Z,2.30
2022-12-27T23:27:18.380Z,2.30
2022-12-27T23:29:45.347Z,2.30
2022-12-27T23:32:12.328Z,2.30
2022-12-27T23:34:39.288Z,2.30
2022-12-27T23:37:06.264Z,2.20
2022-12-27T23:39:33.296Z,2.20
2022-12-27T23:42:00.248Z,2.20
2022-12-27T23:44:27.215Z,2.20
2022-12-27T23:47:05.048Z,2.20
2022-12-27T23:49:32.394Z,2.20
2022-12-27T23:51:59.368Z,2.20
2022-12-27T23:54:26.344Z,2.20
2022-12-27T23:56:53.303Z,2.20
2022-12-27T23:59:20.353Z,2.20
